sensor_id;sensor_type;location;lat;lon;timestamp;P1;durP1;ratioP1;P2;durP2;ratioP2
69404;SDS011;57084;52.046;5.632;2022-08-21T00:00:00;9.3;;;3.3;;
69404;SDS011;57084;52.046;5.632;2022-08-21T00:01:03;12.1;;;3.5;;
69404;SDS011;57084;52.046;5.632;2022-08-21T00:02:00;12.1;;;3.5;;
69404;SDS011;57084;52.046;5.632;2022-08-21T00:03:02;12.1;;;3.5;;
69404;SDS011;57084;52.046;5.632;2022-08-21T00:04:04;12.1;;;3.5;;
69404;SDS011;57084;52.046;5.632;2022-08-21T00:05:00;12.1;;;3.5;;
69404;SDS011;57084;52.046;5.632;2022-08-21T00:06:00;7.7;;;3.3;;
69404;SDS011;57084;52.046;5.632;2022-08-21T00:07:00;7.7;;;3.3;;
69404;SDS011;57084;52.046;5.632;2022-08-21T00:08:00;7.7;;;3.3;;
69404;SDS011;57084;52.046;5.632;2022-08-21T00:09:00;7.7;;;3.3;;
69404;SDS011;57084;52.046;5.632;2022-08-21T00:10:00;7.7;;;3.3;;
69404;SDS011;57084;52.046;5.632;2022-08-21T00:11:00;8.0;;;3.2;;
69404;SDS011;57084;52.046;5.632;2022-08-21T00:12:00;8.0;;;3.2;;
69404;SDS011;57084;52.046;5.632;2022-08-21T00:13:00;8.0;;;3.2;;
69404;SDS011;57084;52.046;5.632;2022-08-21T00:14:00;8.0;;;3.2;;
69404;SDS011;57084;52.046;5.632;2022-08-21T00:15:00;8.0;;;3.2;;
69404;SDS011;57084;52.046;5.632;2022-08-21T00:16:00;9.6;;;3.4;;
69404;SDS011;57084;52.046;5.632;2022-08-21T00:17:00;9.6;;;3.4;;
69404;SDS011;57084;52.046;5.632;2022-08-21T00:18:00;9.6;;;3.4;;
69404;SDS011;57084;52.046;5.632;2022-08-21T00:19:00;9.6;;;3.4;;
69404;SDS011;57084;52.046;5.632;2022-08-21T00:20:00;9.6;;;3.4;;
69404;SDS011;57084;52.046;5.632;2022-08-21T00:21:00;9.1;;;3.4;;
69404;SDS011;57084;52.046;5.632;2022-08-21T00:22:00;9.1;;;3.4;;
69404;SDS011;57084;52.046;5.632;2022-08-21T00:23:00;9.1;;;3.4;;
69404;SDS011;57084;52.046;5.632;2022-08-21T00:24:00;9.1;;;3.4;;
69404;SDS011;57084;52.046;5.632;2022-08-21T00:25:00;9.1;;;3.4;;
69404;SDS011;57084;52.046;5.632;2022-08-21T00:26:00;8.0;;;3.2;;
69404;SDS011;57084;52.046;5.632;2022-08-21T00:27:00;8.0;;;3.2;;
69404;SDS011;57084;52.046;5.632;2022-08-21T00:28:00;8.0;;;3.2;;
69404;SDS011;57084;52.046;5.632;2022-08-21T00:29:00;8.0;;;3.2;;
69404;SDS011;57084;52.046;5.632;2022-08-21T00:30:00;8.0;;;3.2;;
69404;SDS011;57084;52.046;5.632;2022-08-21T00:31:00;7.8;;;3.6;;
69404;SDS011;57084;52.046;5.632;2022-08-21T00:32:00;7.8;;;3.6;;
69404;SDS011;57084;52.046;5.632;2022-08-21T00:33:00;7.8;;;3.6;;
69404;SDS011;57084;52.046;5.632;2022-08-21T00:34:00;7.8;;;3.6;;
69404;SDS011;57084;52.046;5.632;2022-08-21T00:35:00;7.8;;;3.6;;
69404;SDS011;57084;52.046;5.632;2022-08-21T00:36:00;8.3;;;3.6;;
69404;SDS011;57084;52.046;5.632;2022-08-21T00:37:00;8.3;;;3.6;;
69404;SDS011;57084;52.046;5.632;2022-08-21T00:38:00;8.3;;;3.6;;
69404;SDS011;57084;52.046;5.632;2022-08-21T00:39:00;8.3;;;3.6;;
69404;SDS011;57084;52.046;5.632;2022-08-21T00:40:00;8.3;;;3.6;;
69404;SDS011;57084;52.046;5.632;2022-08-21T00:41:03;10.0;;;3.8;;
69404;SDS011;57084;52.046;5.632;2022-08-21T00:42:00;10.0;;;3.8;;
69404;SDS011;57084;52.046;5.632;2022-08-21T00:43:01;10.0;;;3.8;;
69404;SDS011;57084;52.046;5.632;2022-08-21T00:44:00;10.0;;;3.8;;
69404;SDS011;57084;52.046;5.632;2022-08-21T00:45:00;10.0;;;3.8;;
69404;SDS011;57084;52.046;5.632;2022-08-21T00:46:01;8.2;;;3.3;;
69404;SDS011;57084;52.046;5.632;2022-08-21T00:47:00;8.2;;;3.3;;
69404;SDS011;57084;52.046;5.632;2022-08-21T00:48:00;8.2;;;3.3;;
69404;SDS011;57084;52.046;5.632;2022-08-21T00:49:00;8.2;;;3.3;;
69404;SDS011;57084;52.046;5.632;2022-08-21T00:50:00;8.2;;;3.3;;
69404;SDS011;57084;52.046;5.632;2022-08-21T00:51:07;13.7;;;4.1;;
69404;SDS011;57084;52.046;5.632;2022-08-21T00:52:01;13.7;;;4.1;;
69404;SDS011;57084;52.046;5.632;2022-08-21T00:53:02;13.7;;;4.1;;
69404;SDS011;57084;52.046;5.632;2022-08-21T00:54:01;13.7;;;4.1;;
69404;SDS011;57084;52.046;5.632;2022-08-21T00:55:00;13.7;;;4.1;;
69404;SDS011;57084;52.046;5.632;2022-08-21T00:56:00;8.5;;;3.5;;
69404;SDS011;57084;52.046;5.632;2022-08-21T00:57:03;8.5;;;3.5;;
69404;SDS011;57084;52.046;5.632;2022-08-21T00:58:01;8.5;;;3.5;;
69404;SDS011;57084;52.046;5.632;2022-08-21T00:59:01;8.5;;;3.5;;
69404;SDS011;57084;52.046;5.632;2022-08-21T01:00:07;8.5;;;3.5;;
69404;SDS011;57084;52.046;5.632;2022-08-21T01:01:02;11.0;;;4.1;;
69404;SDS011;57084;52.046;5.632;2022-08-21T01:02:00;11.0;;;4.1;;
69404;SDS011;57084;52.046;5.632;2022-08-21T01:03:04;11.0;;;4.1;;
69404;SDS011;57084;52.046;5.632;2022-08-21T01:04:00;11.0;;;4.1;;
69404;SDS011;57084;52.046;5.632;2022-08-21T01:05:00;11.0;;;4.1;;
69404;SDS011;57084;52.046;5.632;2022-08-21T01:06:00;10.0;;;3.8;;
69404;SDS011;57084;52.046;5.632;2022-08-21T01:07:00;10.0;;;3.8;;
69404;SDS011;57084;52.046;5.632;2022-08-21T01:08:00;10.0;;;3.8;;
69404;SDS011;57084;52.046;5.632;2022-08-21T01:09:00;10.0;;;3.8;;
69404;SDS011;57084;52.046;5.632;2022-08-21T01:10:00;10.0;;;3.8;;
69404;SDS011;57084;52.046;5.632;2022-08-21T01:11:01;9.9;;;3.6;;
69404;SDS011;57084;52.046;5.632;2022-08-21T01:12:00;9.9;;;3.6;;
69404;SDS011;57084;52.046;5.632;2022-08-21T01:13:01;9.9;;;3.6;;
69404;SDS011;57084;52.046;5.632;2022-08-21T01:14:00;9.9;;;3.6;;
69404;SDS011;57084;52.046;5.632;2022-08-21T01:15:02;9.9;;;3.6;;
69404;SDS011;57084;52.046;5.632;2022-08-21T01:16:02;9.8;;;3.7;;
69404;SDS011;57084;52.046;5.632;2022-08-21T01:17:01;9.8;;;3.7;;
69404;SDS011;57084;52.046;5.632;2022-08-21T01:18:00;9.8;;;3.7;;
69404;SDS011;57084;52.046;5.632;2022-08-21T01:19:00;9.8;;;3.7;;
69404;SDS011;57084;52.046;5.632;2022-08-21T01:20:00;9.8;;;3.7;;
69404;SDS011;57084;52.046;5.632;2022-08-21T01:21:01;10.6;;;3.7;;
69404;SDS011;57084;52.046;5.632;2022-08-21T01:22:00;10.6;;;3.7;;
69404;SDS011;57084;52.046;5.632;2022-08-21T01:23:01;10.6;;;3.7;;
69404;SDS011;57084;52.046;5.632;2022-08-21T01:24:00;10.6;;;3.7;;
69404;SDS011;57084;52.046;5.632;2022-08-21T01:25:00;10.6;;;3.7;;
69404;SDS011;57084;52.046;5.632;2022-08-21T01:26:00;10.2;;;3.9;;
69404;SDS011;57084;52.046;5.632;2022-08-21T01:27:00;10.2;;;3.9;;
69404;SDS011;57084;52.046;5.632;2022-08-21T01:28:12;10.2;;;3.9;;
69404;SDS011;57084;52.046;5.632;2022-08-21T01:29:05;10.2;;;3.9;;
69404;SDS011;57084;52.046;5.632;2022-08-21T01:30:07;10.2;;;3.9;;
69404;SDS011;57084;52.046;5.632;2022-08-21T01:31:01;10.1;;;3.6;;
69404;SDS011;57084;52.046;5.632;2022-08-21T01:32:05;10.1;;;3.6;;
69404;SDS011;57084;52.046;5.632;2022-08-21T01:33:00;10.1;;;3.6;;
69404;SDS011;57084;52.046;5.632;2022-08-21T01:34:00;10.1;;;3.6;;
69404;SDS011;57084;52.046;5.632;2022-08-21T01:35:00;10.1;;;3.6;;
69404;SDS011;57084;52.046;5.632;2022-08-21T01:36:00;8.6;;;3.7;;
69404;SDS011;57084;52.046;5.632;2022-08-21T01:37:00;8.6;;;3.7;;
69404;SDS011;57084;52.046;5.632;2022-08-21T01:38:00;8.6;;;3.7;;
69404;SDS011;57084;52.046;5.632;2022-08-21T01:39:00;8.6;;;3.7;;
69404;SDS011;57084;52.046;5.632;2022-08-21T01:40:00;8.6;;;3.7;;
69404;SDS011;57084;52.046;5.632;2022-08-21T01:41:00;10.1;;;4.0;;
69404;SDS011;57084;52.046;5.632;2022-08-21T01:42:00;10.1;;;4.0;;
69404;SDS011;57084;52.046;5.632;2022-08-21T01:43:00;10.1;;;4.0;;
69404;SDS011;57084;52.046;5.632;2022-08-21T01:44:00;10.1;;;4.0;;
69404;SDS011;57084;52.046;5.632;2022-08-21T01:45:00;10.1;;;4.0;;
69404;SDS011;57084;52.046;5.632;2022-08-21T01:46:01;8.8;;;4.0;;
69404;SDS011;57084;52.046;5.632;2022-08-21T01:47:06;8.8;;;4.0;;
69404;SDS011;57084;52.046;5.632;2022-08-21T01:48:00;8.8;;;4.0;;
69404;SDS011;57084;52.046;5.632;2022-08-21T01:49:00;8.8;;;4.0;;
69404;SDS011;57084;52.046;5.632;2022-08-21T01:50:02;8.8;;;4.0;;
69404;SDS011;57084;52.046;5.632;2022-08-21T01:51:00;9.5;;;3.8;;
69404;SDS011;57084;52.046;5.632;2022-08-21T01:52:00;9.5;;;3.8;;
69404;SDS011;57084;52.046;5.632;2022-08-21T01:53:00;9.5;;;3.8;;
69404;SDS011;57084;52.046;5.632;2022-08-21T01:54:00;9.5;;;3.8;;
69404;SDS011;57084;52.046;5.632;2022-08-21T01:55:00;9.5;;;3.8;;
69404;SDS011;57084;52.046;5.632;2022-08-21T01:56:00;10.2;;;3.7;;
69404;SDS011;57084;52.046;5.632;2022-08-21T01:57:01;10.2;;;3.7;;
69404;SDS011;57084;52.046;5.632;2022-08-21T01:58:00;10.2;;;3.7;;
69404;SDS011;57084;52.046;5.632;2022-08-21T01:59:00;10.2;;;3.7;;
69404;SDS011;57084;52.046;5.632;2022-08-21T02:00:00;10.2;;;3.7;;
69404;SDS011;57084;52.046;5.632;2022-08-21T02:01:00;9.2;;;3.5;;
69404;SDS011;57084;52.046;5.632;2022-08-21T02:02:00;9.2;;;3.5;;
69404;SDS011;57084;52.046;5.632;2022-08-21T02:03:00;9.2;;;3.5;;
69404;SDS011;57084;52.046;5.632;2022-08-21T02:04:00;9.2;;;3.5;;
69404;SDS011;57084;52.046;5.632;2022-08-21T02:05:00;9.2;;;3.5;;
69404;SDS011;57084;52.046;5.632;2022-08-21T02:06:00;8.3;;;3.8;;
69404;SDS011;57084;52.046;5.632;2022-08-21T02:07:01;8.3;;;3.8;;
69404;SDS011;57084;52.046;5.632;2022-08-21T02:08:00;8.3;;;3.8;;
69404;SDS011;57084;52.046;5.632;2022-08-21T02:09:00;8.3;;;3.8;;
69404;SDS011;57084;52.046;5.632;2022-08-21T02:10:00;8.3;;;3.8;;
69404;SDS011;57084;52.046;5.632;2022-08-21T02:11:00;8.3;;;3.8;;
69404;SDS011;57084;52.046;5.632;2022-08-21T02:12:01;8.6;;;4.0;;
69404;SDS011;57084;52.046;5.632;2022-08-21T02:13:01;8.6;;;4.0;;
69404;SDS011;57084;52.046;5.632;2022-08-21T02:14:00;8.6;;;4.0;;
69404;SDS011;57084;52.046;5.632;2022-08-21T02:15:00;8.6;;;4.0;;
69404;SDS011;57084;52.046;5.632;2022-08-21T02:16:00;8.6;;;4.0;;
69404;SDS011;57084;52.046;5.632;2022-08-21T02:17:00;9.6;;;3.9;;
69404;SDS011;57084;52.046;5.632;2022-08-21T02:18:01;9.6;;;3.9;;
69404;SDS011;57084;52.046;5.632;2022-08-21T02:19:00;9.6;;;3.9;;
69404;SDS011;57084;52.046;5.632;2022-08-21T02:20:00;9.6;;;3.9;;
69404;SDS011;57084;52.046;5.632;2022-08-21T02:21:00;9.6;;;3.9;;
69404;SDS011;57084;52.046;5.632;2022-08-21T02:22:00;9.4;;;4.1;;
69404;SDS011;57084;52.046;5.632;2022-08-21T02:23:00;9.4;;;4.1;;
69404;SDS011;57084;52.046;5.632;2022-08-21T02:24:00;9.4;;;4.1;;
69404;SDS011;57084;52.046;5.632;2022-08-21T02:25:00;9.4;;;4.1;;
69404;SDS011;57084;52.046;5.632;2022-08-21T02:26:01;9.4;;;4.1;;
69404;SDS011;57084;52.046;5.632;2022-08-21T02:27:00;10.5;;;4.2;;
69404;SDS011;57084;52.046;5.632;2022-08-21T02:28:04;10.5;;;4.2;;
69404;SDS011;57084;52.046;5.632;2022-08-21T02:29:01;10.5;;;4.2;;
69404;SDS011;57084;52.046;5.632;2022-08-21T02:30:00;10.5;;;4.2;;
69404;SDS011;57084;52.046;5.632;2022-08-21T02:31:00;10.5;;;4.2;;
69404;SDS011;57084;52.046;5.632;2022-08-21T02:32:00;10.8;;;4.3;;
69404;SDS011;57084;52.046;5.632;2022-08-21T02:33:00;10.8;;;4.3;;
69404;SDS011;57084;52.046;5.632;2022-08-21T02:34:00;10.8;;;4.3;;
69404;SDS011;57084;52.046;5.632;2022-08-21T02:35:00;10.8;;;4.3;;
69404;SDS011;57084;52.046;5.632;2022-08-21T02:36:00;10.8;;;4.3;;
69404;SDS011;57084;52.046;5.632;2022-08-21T02:37:00;9.2;;;4.1;;
69404;SDS011;57084;52.046;5.632;2022-08-21T02:38:06;9.2;;;4.1;;
69404;SDS011;57084;52.046;5.632;2022-08-21T02:39:00;9.2;;;4.1;;
69404;SDS011;57084;52.046;5.632;2022-08-21T02:40:00;9.2;;;4.1;;
69404;SDS011;57084;52.046;5.632;2022-08-21T02:41:00;9.2;;;4.1;;
69404;SDS011;57084;52.046;5.632;2022-08-21T02:42:00;9.1;;;4.0;;
69404;SDS011;57084;52.046;5.632;2022-08-21T02:43:02;9.1;;;4.0;;
69404;SDS011;57084;52.046;5.632;2022-08-21T02:44:00;9.1;;;4.0;;
69404;SDS011;57084;52.046;5.632;2022-08-21T02:45:00;9.1;;;4.0;;
69404;SDS011;57084;52.046;5.632;2022-08-21T02:46:00;9.1;;;4.0;;
69404;SDS011;57084;52.046;5.632;2022-08-21T02:47:00;9.5;;;4.0;;
69404;SDS011;57084;52.046;5.632;2022-08-21T02:48:04;9.5;;;4.0;;
69404;SDS011;57084;52.046;5.632;2022-08-21T02:49:00;9.5;;;4.0;;
69404;SDS011;57084;52.046;5.632;2022-08-21T02:50:00;9.5;;;4.0;;
69404;SDS011;57084;52.046;5.632;2022-08-21T02:51:02;9.5;;;4.0;;
69404;SDS011;57084;52.046;5.632;2022-08-21T02:52:00;10.1;;;4.0;;
69404;SDS011;57084;52.046;5.632;2022-08-21T02:53:00;10.1;;;4.0;;
69404;SDS011;57084;52.046;5.632;2022-08-21T02:54:00;10.1;;;4.0;;
69404;SDS011;57084;52.046;5.632;2022-08-21T02:55:00;10.1;;;4.0;;
69404;SDS011;57084;52.046;5.632;2022-08-21T02:56:03;10.1;;;4.0;;
69404;SDS011;57084;52.046;5.632;2022-08-21T02:57:00;9.6;;;4.2;;
69404;SDS011;57084;52.046;5.632;2022-08-21T02:58:00;9.6;;;4.2;;
69404;SDS011;57084;52.046;5.632;2022-08-21T02:59:00;9.6;;;4.2;;
69404;SDS011;57084;52.046;5.632;2022-08-21T03:00:00;9.6;;;4.2;;
69404;SDS011;57084;52.046;5.632;2022-08-21T03:01:00;9.6;;;4.2;;
69404;SDS011;57084;52.046;5.632;2022-08-21T03:02:00;9.7;;;3.9;;
69404;SDS011;57084;52.046;5.632;2022-08-21T03:03:00;9.7;;;3.9;;
69404;SDS011;57084;52.046;5.632;2022-08-21T03:04:00;9.7;;;3.9;;
69404;SDS011;57084;52.046;5.632;2022-08-21T03:05:00;9.7;;;3.9;;
69404;SDS011;57084;52.046;5.632;2022-08-21T03:06:00;9.7;;;3.9;;
69404;SDS011;57084;52.046;5.632;2022-08-21T03:07:00;9.1;;;4.0;;
69404;SDS011;57084;52.046;5.632;2022-08-21T03:08:01;9.1;;;4.0;;
69404;SDS011;57084;52.046;5.632;2022-08-21T03:09:00;9.1;;;4.0;;
69404;SDS011;57084;52.046;5.632;2022-08-21T03:10:00;9.1;;;4.0;;
69404;SDS011;57084;52.046;5.632;2022-08-21T03:11:00;9.1;;;4.0;;
69404;SDS011;57084;52.046;5.632;2022-08-21T03:12:00;11.0;;;4.2;;
69404;SDS011;57084;52.046;5.632;2022-08-21T03:13:00;11.0;;;4.2;;
69404;SDS011;57084;52.046;5.632;2022-08-21T03:14:00;11.0;;;4.2;;
69404;SDS011;57084;52.046;5.632;2022-08-21T03:15:00;11.0;;;4.2;;
69404;SDS011;57084;52.046;5.632;2022-08-21T03:16:00;11.0;;;4.2;;
69404;SDS011;57084;52.046;5.632;2022-08-21T03:17:00;11.6;;;4.3;;
69404;SDS011;57084;52.046;5.632;2022-08-21T03:18:00;11.6;;;4.3;;
69404;SDS011;57084;52.046;5.632;2022-08-21T03:19:00;11.6;;;4.3;;
69404;SDS011;57084;52.046;5.632;2022-08-21T03:20:00;11.6;;;4.3;;
69404;SDS011;57084;52.046;5.632;2022-08-21T03:21:00;11.6;;;4.3;;
69404;SDS011;57084;52.046;5.632;2022-08-21T03:22:00;10.8;;;3.6;;
69404;SDS011;57084;52.046;5.632;2022-08-21T03:23:01;10.8;;;3.6;;
69404;SDS011;57084;52.046;5.632;2022-08-21T03:24:00;10.8;;;3.6;;
69404;SDS011;57084;52.046;5.632;2022-08-21T03:25:00;10.8;;;3.6;;
69404;SDS011;57084;52.046;5.632;2022-08-21T03:26:00;10.8;;;3.6;;
69404;SDS011;57084;52.046;5.632;2022-08-21T03:27:00;10.2;;;4.0;;
69404;SDS011;57084;52.046;5.632;2022-08-21T03:28:01;10.2;;;4.0;;
69404;SDS011;57084;52.046;5.632;2022-08-21T03:29:00;10.2;;;4.0;;
69404;SDS011;57084;52.046;5.632;2022-08-21T03:30:00;10.2;;;4.0;;
69404;SDS011;57084;52.046;5.632;2022-08-21T03:31:00;10.2;;;4.0;;
69404;SDS011;57084;52.046;5.632;2022-08-21T03:32:00;8.6;;;3.9;;
69404;SDS011;57084;52.046;5.632;2022-08-21T03:33:00;8.6;;;3.9;;
69404;SDS011;57084;52.046;5.632;2022-08-21T03:34:00;8.6;;;3.9;;
69404;SDS011;57084;52.046;5.632;2022-08-21T03:35:00;8.6;;;3.9;;
69404;SDS011;57084;52.046;5.632;2022-08-21T03:36:02;8.6;;;3.9;;
69404;SDS011;57084;52.046;5.632;2022-08-21T03:37:00;9.0;;;3.6;;
69404;SDS011;57084;52.046;5.632;2022-08-21T03:38:00;9.0;;;3.6;;
69404;SDS011;57084;52.046;5.632;2022-08-21T03:39:00;9.0;;;3.6;;
69404;SDS011;57084;52.046;5.632;2022-08-21T03:40:00;9.0;;;3.6;;
69404;SDS011;57084;52.046;5.632;2022-08-21T03:41:00;9.0;;;3.6;;
69404;SDS011;57084;52.046;5.632;2022-08-21T03:42:00;10.7;;;4.1;;
69404;SDS011;57084;52.046;5.632;2022-08-21T03:43:00;10.7;;;4.1;;
69404;SDS011;57084;52.046;5.632;2022-08-21T03:44:00;10.7;;;4.1;;
69404;SDS011;57084;52.046;5.632;2022-08-21T03:45:00;10.7;;;4.1;;
69404;SDS011;57084;52.046;5.632;2022-08-21T03:46:01;10.7;;;4.1;;
69404;SDS011;57084;52.046;5.632;2022-08-21T03:47:01;9.8;;;4.0;;
69404;SDS011;57084;52.046;5.632;2022-08-21T03:48:02;9.8;;;4.0;;
69404;SDS011;57084;52.046;5.632;2022-08-21T03:49:00;9.8;;;4.0;;
69404;SDS011;57084;52.046;5.632;2022-08-21T03:50:00;9.8;;;4.0;;
69404;SDS011;57084;52.046;5.632;2022-08-21T03:51:00;9.8;;;4.0;;
69404;SDS011;57084;52.046;5.632;2022-08-21T03:52:00;9.7;;;4.0;;
69404;SDS011;57084;52.046;5.632;2022-08-21T03:53:00;9.7;;;4.0;;
69404;SDS011;57084;52.046;5.632;2022-08-21T03:54:00;9.7;;;4.0;;
69404;SDS011;57084;52.046;5.632;2022-08-21T03:55:00;9.7;;;4.0;;
69404;SDS011;57084;52.046;5.632;2022-08-21T03:56:00;9.7;;;4.0;;
69404;SDS011;57084;52.046;5.632;2022-08-21T03:57:01;10.1;;;3.8;;
69404;SDS011;57084;52.046;5.632;2022-08-21T03:58:00;10.1;;;3.8;;
69404;SDS011;57084;52.046;5.632;2022-08-21T03:59:00;10.1;;;3.8;;
69404;SDS011;57084;52.046;5.632;2022-08-21T04:00:00;10.1;;;3.8;;
69404;SDS011;57084;52.046;5.632;2022-08-21T04:01:00;10.1;;;3.8;;
69404;SDS011;57084;52.046;5.632;2022-08-21T04:02:01;10.9;;;4.2;;
69404;SDS011;57084;52.046;5.632;2022-08-21T04:03:00;10.9;;;4.2;;
69404;SDS011;57084;52.046;5.632;2022-08-21T04:04:00;10.9;;;4.2;;
69404;SDS011;57084;52.046;5.632;2022-08-21T04:05:00;10.9;;;4.2;;
69404;SDS011;57084;52.046;5.632;2022-08-21T04:06:00;10.9;;;4.2;;
69404;SDS011;57084;52.046;5.632;2022-08-21T04:07:00;9.5;;;3.8;;
69404;SDS011;57084;52.046;5.632;2022-08-21T04:08:02;9.5;;;3.8;;
69404;SDS011;57084;52.046;5.632;2022-08-21T04:09:00;9.5;;;3.8;;
69404;SDS011;57084;52.046;5.632;2022-08-21T04:10:00;9.5;;;3.8;;
69404;SDS011;57084;52.046;5.632;2022-08-21T04:11:00;9.5;;;3.8;;
69404;SDS011;57084;52.046;5.632;2022-08-21T04:12:00;11.8;;;4.1;;
69404;SDS011;57084;52.046;5.632;2022-08-21T04:13:00;11.8;;;4.1;;
69404;SDS011;57084;52.046;5.632;2022-08-21T04:14:00;11.8;;;4.1;;
69404;SDS011;57084;52.046;5.632;2022-08-21T04:15:00;11.8;;;4.1;;
69404;SDS011;57084;52.046;5.632;2022-08-21T04:16:00;11.8;;;4.1;;
69404;SDS011;57084;52.046;5.632;2022-08-21T04:17:00;9.1;;;3.9;;
69404;SDS011;57084;52.046;5.632;2022-08-21T04:18:00;9.1;;;3.9;;
69404;SDS011;57084;52.046;5.632;2022-08-21T04:19:00;9.1;;;3.9;;
69404;SDS011;57084;52.046;5.632;2022-08-21T04:20:00;9.1;;;3.9;;
69404;SDS011;57084;52.046;5.632;2022-08-21T04:21:01;9.1;;;3.9;;
69404;SDS011;57084;52.046;5.632;2022-08-21T04:22:00;9.1;;;3.9;;
69404;SDS011;57084;52.046;5.632;2022-08-21T04:23:00;11.5;;;4.2;;
69404;SDS011;57084;52.046;5.632;2022-08-21T04:24:00;11.5;;;4.2;;
69404;SDS011;57084;52.046;5.632;2022-08-21T04:25:00;11.5;;;4.2;;
69404;SDS011;57084;52.046;5.632;2022-08-21T04:26:00;11.5;;;4.2;;
69404;SDS011;57084;52.046;5.632;2022-08-21T04:27:00;11.5;;;4.2;;
69404;SDS011;57084;52.046;5.632;2022-08-21T04:28:00;10.5;;;4.2;;
69404;SDS011;57084;52.046;5.632;2022-08-21T04:29:00;10.5;;;4.2;;
69404;SDS011;57084;52.046;5.632;2022-08-21T04:30:00;10.5;;;4.2;;
69404;SDS011;57084;52.046;5.632;2022-08-21T04:31:00;10.5;;;4.2;;
69404;SDS011;57084;52.046;5.632;2022-08-21T04:32:00;10.5;;;4.2;;
69404;SDS011;57084;52.046;5.632;2022-08-21T04:33:00;9.0;;;4.0;;
69404;SDS011;57084;52.046;5.632;2022-08-21T04:34:00;9.0;;;4.0;;
69404;SDS011;57084;52.046;5.632;2022-08-21T04:35:02;9.0;;;4.0;;
69404;SDS011;57084;52.046;5.632;2022-08-21T04:36:00;9.0;;;4.0;;
69404;SDS011;57084;52.046;5.632;2022-08-21T04:37:00;9.0;;;4.0;;
69404;SDS011;57084;52.046;5.632;2022-08-21T04:38:00;15.3;;;4.3;;
69404;SDS011;57084;52.046;5.632;2022-08-21T04:39:00;15.3;;;4.3;;
69404;SDS011;57084;52.046;5.632;2022-08-21T04:40:00;15.3;;;4.3;;
69404;SDS011;57084;52.046;5.632;2022-08-21T04:41:00;15.3;;;4.3;;
69404;SDS011;57084;52.046;5.632;2022-08-21T04:42:00;15.3;;;4.3;;
69404;SDS011;57084;52.046;5.632;2022-08-21T04:43:03;11.4;;;4.1;;
69404;SDS011;57084;52.046;5.632;2022-08-21T04:44:00;11.4;;;4.1;;
69404;SDS011;57084;52.046;5.632;2022-08-21T04:45:00;11.4;;;4.1;;
69404;SDS011;57084;52.046;5.632;2022-08-21T04:46:00;11.4;;;4.1;;
69404;SDS011;57084;52.046;5.632;2022-08-21T04:47:00;11.4;;;4.1;;
69404;SDS011;57084;52.046;5.632;2022-08-21T04:48:04;9.7;;;4.0;;
69404;SDS011;57084;52.046;5.632;2022-08-21T04:49:00;9.7;;;4.0;;
69404;SDS011;57084;52.046;5.632;2022-08-21T04:50:00;9.7;;;4.0;;
69404;SDS011;57084;52.046;5.632;2022-08-21T04:51:03;9.7;;;4.0;;
69404;SDS011;57084;52.046;5.632;2022-08-21T04:52:00;9.7;;;4.0;;
69404;SDS011;57084;52.046;5.632;2022-08-21T04:53:00;11.0;;;4.2;;
69404;SDS011;57084;52.046;5.632;2022-08-21T04:54:02;11.0;;;4.2;;
69404;SDS011;57084;52.046;5.632;2022-08-21T04:55:00;11.0;;;4.2;;
69404;SDS011;57084;52.046;5.632;2022-08-21T04:56:03;11.0;;;4.2;;
69404;SDS011;57084;52.046;5.632;2022-08-21T04:57:02;11.0;;;4.2;;
69404;SDS011;57084;52.046;5.632;2022-08-21T04:58:00;11.8;;;4.4;;
69404;SDS011;57084;52.046;5.632;2022-08-21T04:59:04;11.8;;;4.4;;
69404;SDS011;57084;52.046;5.632;2022-08-21T05:00:01;11.8;;;4.4;;
69404;SDS011;57084;52.046;5.632;2022-08-21T05:01:01;11.8;;;4.4;;
69404;SDS011;57084;52.046;5.632;2022-08-21T05:02:01;11.8;;;4.4;;
69404;SDS011;57084;52.046;5.632;2022-08-21T05:03:01;9.8;;;4.3;;
69404;SDS011;57084;52.046;5.632;2022-08-21T05:04:02;9.8;;;4.3;;
69404;SDS011;57084;52.046;5.632;2022-08-21T05:05:00;9.8;;;4.3;;
69404;SDS011;57084;52.046;5.632;2022-08-21T05:06:04;9.8;;;4.3;;
69404;SDS011;57084;52.046;5.632;2022-08-21T05:07:04;9.8;;;4.3;;
69404;SDS011;57084;52.046;5.632;2022-08-21T05:08:01;9.6;;;4.2;;
69404;SDS011;57084;52.046;5.632;2022-08-21T05:09:00;9.6;;;4.2;;
69404;SDS011;57084;52.046;5.632;2022-08-21T05:10:00;9.6;;;4.2;;
69404;SDS011;57084;52.046;5.632;2022-08-21T05:11:00;9.6;;;4.2;;
69404;SDS011;57084;52.046;5.632;2022-08-21T05:12:00;9.6;;;4.2;;
69404;SDS011;57084;52.046;5.632;2022-08-21T05:13:00;11.2;;;4.3;;
69404;SDS011;57084;52.046;5.632;2022-08-21T05:14:00;11.2;;;4.3;;
69404;SDS011;57084;52.046;5.632;2022-08-21T05:15:00;11.2;;;4.3;;
69404;SDS011;57084;52.046;5.632;2022-08-21T05:16:00;11.2;;;4.3;;
69404;SDS011;57084;52.046;5.632;2022-08-21T05:17:00;11.2;;;4.3;;
69404;SDS011;57084;52.046;5.632;2022-08-21T05:18:00;10.9;;;4.3;;
69404;SDS011;57084;52.046;5.632;2022-08-21T05:19:00;10.9;;;4.3;;
69404;SDS011;57084;52.046;5.632;2022-08-21T05:20:00;10.9;;;4.3;;
69404;SDS011;57084;52.046;5.632;2022-08-21T05:21:00;10.9;;;4.3;;
69404;SDS011;57084;52.046;5.632;2022-08-21T05:22:00;10.9;;;4.3;;
69404;SDS011;57084;52.046;5.632;2022-08-21T05:23:01;12.8;;;5.2;;
69404;SDS011;57084;52.046;5.632;2022-08-21T05:24:00;12.8;;;5.2;;
69404;SDS011;57084;52.046;5.632;2022-08-21T05:25:00;12.8;;;5.2;;
69404;SDS011;57084;52.046;5.632;2022-08-21T05:26:00;12.8;;;5.2;;
69404;SDS011;57084;52.046;5.632;2022-08-21T05:27:00;12.8;;;5.2;;
69404;SDS011;57084;52.046;5.632;2022-08-21T05:28:00;13.2;;;4.9;;
69404;SDS011;57084;52.046;5.632;2022-08-21T05:29:00;13.2;;;4.9;;
69404;SDS011;57084;52.046;5.632;2022-08-21T05:30:00;13.2;;;4.9;;
69404;SDS011;57084;52.046;5.632;2022-08-21T05:31:00;13.2;;;4.9;;
69404;SDS011;57084;52.046;5.632;2022-08-21T05:32:00;13.2;;;4.9;;
69404;SDS011;57084;52.046;5.632;2022-08-21T05:33:02;11.6;;;4.7;;
69404;SDS011;57084;52.046;5.632;2022-08-21T05:34:00;11.6;;;4.7;;
69404;SDS011;57084;52.046;5.632;2022-08-21T05:35:00;11.6;;;4.7;;
69404;SDS011;57084;52.046;5.632;2022-08-21T05:36:00;11.6;;;4.7;;
69404;SDS011;57084;52.046;5.632;2022-08-21T05:37:00;11.6;;;4.7;;
69404;SDS011;57084;52.046;5.632;2022-08-21T05:38:00;12.2;;;4.9;;
69404;SDS011;57084;52.046;5.632;2022-08-21T05:39:00;12.2;;;4.9;;
69404;SDS011;57084;52.046;5.632;2022-08-21T05:40:00;12.2;;;4.9;;
69404;SDS011;57084;52.046;5.632;2022-08-21T05:41:00;12.2;;;4.9;;
69404;SDS011;57084;52.046;5.632;2022-08-21T05:42:00;12.2;;;4.9;;
69404;SDS011;57084;52.046;5.632;2022-08-21T05:43:00;13.7;;;5.5;;
69404;SDS011;57084;52.046;5.632;2022-08-21T05:44:00;13.7;;;5.5;;
69404;SDS011;57084;52.046;5.632;2022-08-21T05:45:00;13.7;;;5.5;;
69404;SDS011;57084;52.046;5.632;2022-08-21T05:46:00;13.7;;;5.5;;
69404;SDS011;57084;52.046;5.632;2022-08-21T05:47:03;13.7;;;5.5;;
69404;SDS011;57084;52.046;5.632;2022-08-21T05:48:05;11.3;;;4.7;;
69404;SDS011;57084;52.046;5.632;2022-08-21T05:49:00;11.3;;;4.7;;
69404;SDS011;57084;52.046;5.632;2022-08-21T05:50:00;11.3;;;4.7;;
69404;SDS011;57084;52.046;5.632;2022-08-21T05:51:04;11.3;;;4.7;;
69404;SDS011;57084;52.046;5.632;2022-08-21T05:52:00;11.3;;;4.7;;
69404;SDS011;57084;52.046;5.632;2022-08-21T05:53:00;14.0;;;4.8;;
69404;SDS011;57084;52.046;5.632;2022-08-21T05:54:00;14.0;;;4.8;;
69404;SDS011;57084;52.046;5.632;2022-08-21T05:55:00;14.0;;;4.8;;
69404;SDS011;57084;52.046;5.632;2022-08-21T05:56:00;14.0;;;4.8;;
69404;SDS011;57084;52.046;5.632;2022-08-21T05:57:00;14.0;;;4.8;;
69404;SDS011;57084;52.046;5.632;2022-08-21T05:58:00;10.9;;;4.9;;
69404;SDS011;57084;52.046;5.632;2022-08-21T05:59:00;10.9;;;4.9;;
69404;SDS011;57084;52.046;5.632;2022-08-21T06:00:00;10.9;;;4.9;;
69404;SDS011;57084;52.046;5.632;2022-08-21T06:01:02;10.9;;;4.9;;
69404;SDS011;57084;52.046;5.632;2022-08-21T06:02:01;10.9;;;4.9;;
69404;SDS011;57084;52.046;5.632;2022-08-21T06:03:00;12.5;;;5.2;;
69404;SDS011;57084;52.046;5.632;2022-08-21T06:04:00;12.5;;;5.2;;
69404;SDS011;57084;52.046;5.632;2022-08-21T06:05:00;12.5;;;5.2;;
69404;SDS011;57084;52.046;5.632;2022-08-21T06:06:00;12.5;;;5.2;;
69404;SDS011;57084;52.046;5.632;2022-08-21T06:07:00;12.5;;;5.2;;
69404;SDS011;57084;52.046;5.632;2022-08-21T06:08:00;14.9;;;5.4;;
69404;SDS011;57084;52.046;5.632;2022-08-21T06:09:00;14.9;;;5.4;;